Bemidji, Minnesota
Current Conditions -  °F | °C
As of 12:53 PM on Thursday 23 Oct 2014 (Local Time) from KBJI Reporting Station
Clear Clear  
Wind Chill: 65°   Ceiling: Unl
Heat Index: 65°   Visibility: 10mi
Dew Point: 41°   Wind: 12mph
Humidity: 41%   Direction: 250°WSW
Pressure: 29.9"   Gusts: NA
Location:  47.47°N, 94.88°W
Report Text: KBJI 231753Z AUTO 25010KT 10SM CLR 19/05 A2990 RMK AO2 T01850051
Loading
Personal Weather Stations






























Interactive Weather Map
Tropical Storm Tracking
New forecast layout! Learn more

10-Day Weather Forecast

Advertisements
Track Severe Weather on mobile